Time;durP1;ratioP1;P1;durP2;ratioP2;P2;SDS_P1;SDS_P2;PMS_P1;PMS_P2;Temp;Humidity;BMP_temperature;BMP_pressure;BME280_temperature;BME280_humidity;BME280_pressure;Samples;Min_cycle;Max_cycle;Signal;HPM_P1;HPM_P2
2022/04/16 00:01:04;;;;;;;6.03;3.28;;;9.20;81.90;;;;;;4967876;28;20132;-88
2022/04/16 00:03:35;;;;;;;5.18;3.25;;;9.20;82.00;;;;;;4982395;28;20050;-88
2022/04/16 00:06:02;;;;;;;4.22;2.85;;;9.20;82.10;;;;;;4973659;28;20053;-87
2022/04/16 00:08:30;;;;;;;6.13;3.20;;;9.10;82.20;;;;;;4960947;28;20113;-88
2022/04/16 00:10:57;;;;;;;5.05;3.03;;;9.10;82.30;;;;;;4960406;28;20042;-89
2022/04/16 00:13:25;;;;;;;5.10;3.42;;;9.10;82.50;;;;;;4976769;28;20125;-89
2022/04/16 00:15:55;;;;;;;6.03;3.58;;;9.00;82.40;;;;;;4976137;28;20073;-88
2022/04/16 00:18:23;;;;;;;7.55;3.33;;;9.00;82.50;;;;;;4980295;28;20038;-88
2022/04/16 00:20:57;;;;;;;5.35;3.55;;;9.00;82.60;;;;;;4976505;28;20097;-88
2022/04/16 00:23:26;;;;;;;4.57;2.65;;;8.90;82.60;;;;;;4976733;28;20438;-88
2022/04/16 00:25:55;;;;;;;5.78;3.05;;;8.90;82.80;;;;;;4976481;28;20061;-88
2022/04/16 00:28:22;;;;;;;4.57;2.55;;;8.90;82.80;;;;;;4962242;28;20057;-88
2022/04/16 00:30:55;;;;;;;5.22;2.47;;;8.80;83.00;;;;;;4960736;28;20057;-88
2022/04/16 00:33:25;;;;;;;3.78;2.05;;;8.80;83.10;;;;;;4976615;28;20049;-88
2022/04/16 00:35:52;;;;;;;5.20;2.58;;;8.80;83.20;;;;;;4960292;28;20081;-88
2022/04/16 00:38:20;;;;;;;3.95;2.20;;;8.80;83.20;;;;;;4972285;28;20387;-88
2022/04/16 00:40:47;;;;;;;4.47;2.47;;;8.80;83.30;;;;;;4976801;28;20046;-87
2022/04/16 00:43:23;;;;;;;4.68;2.78;;;8.80;83.30;;;;;;4963798;28;20039;-87
2022/04/16 00:45:52;;;;;;;4.95;2.92;;;8.70;83.40;;;;;;4944964;28;20113;-87
2022/04/16 00:48:21;;;;;;;5.22;2.85;;;8.70;83.50;;;;;;4979506;28;20068;-87
2022/04/16 00:50:50;;;;;;;4.63;2.70;;;8.70;83.50;;;;;;4972921;28;20066;-88
2022/04/16 00:53:18;;;;;;;5.28;2.80;;;8.70;83.70;;;;;;4966581;28;20050;-87
2022/04/16 00:55:46;;;;;;;5.28;3.25;;;8.60;83.70;;;;;;4956853;28;20587;-87
2022/04/16 00:58:13;;;;;;;4.28;2.53;;;8.60;83.80;;;;;;4982949;28;20053;-88
2022/04/16 01:00:40;;;;;;;4.65;2.72;;;8.60;83.80;;;;;;5009580;28;20069;-88
2022/04/16 01:03:08;;;;;;;5.82;2.90;;;8.60;83.90;;;;;;4998188;28;20048;-87
2022/04/16 01:05:37;;;;;;;5.95;3.45;;;8.60;83.90;;;;;;5015513;28;20050;-88
2022/04/16 01:08:04;;;;;;;6.80;4.07;;;8.50;83.90;;;;;;4999106;28;20215;-87
2022/04/16 01:10:34;;;;;;;6.10;3.33;;;8.50;84.00;;;;;;4983132;28;20133;-87
2022/04/16 01:13:04;;;;;;;7.18;4.10;;;8.50;84.10;;;;;;5000138;28;20108;-87
2022/04/16 01:15:32;;;;;;;5.20;3.03;;;8.50;84.10;;;;;;5012646;28;20038;-88
2022/04/16 01:18:03;;;;;;;4.45;2.65;;;8.40;84.20;;;;;;4994135;28;20055;-87
2022/04/16 01:20:37;;;;;;;6.28;3.60;;;8.40;84.30;;;;;;4979694;28;20455;-87
2022/04/16 01:23:05;;;;;;;5.22;3.13;;;8.40;84.40;;;;;;5008332;28;20077;-88
2022/04/16 01:25:33;;;;;;;5.35;3.00;;;8.30;84.40;;;;;;5015094;28;20049;-88
2022/04/16 01:28:01;;;;;;;6.28;3.30;;;8.30;84.50;;;;;;4999233;28;20057;-88
2022/04/16 01:30:29;;;;;;;5.68;3.38;;;8.30;84.50;;;;;;5012425;28;20046;-88
2022/04/16 01:32:56;;;;;;;6.18;3.83;;;8.30;84.60;;;;;;5014914;28;20041;-88
2022/04/16 01:35:25;;;;;;;6.30;3.80;;;8.20;84.60;;;;;;4998819;28;20502;-87
2022/04/16 01:37:52;;;;;;;5.40;3.35;;;8.20;84.60;;;;;;4998702;28;20046;-89
2022/04/16 01:40:25;;;;;;;6.95;4.43;;;8.20;84.70;;;;;;4999132;28;20104;-88
2022/04/16 01:42:56;;;;;;;6.00;3.88;;;8.20;84.80;;;;;;5014504;28;20041;-87
2022/04/16 01:45:24;;;;;;;6.63;3.90;;;8.20;84.80;;;;;;4982561;28;20054;-87
2022/04/16 01:47:51;;;;;;;6.43;4.13;;;8.20;84.90;;;;;;4998608;28;20506;-87
2022/04/16 01:50:22;;;;;;;8.00;4.68;;;8.20;84.90;;;;;;5014803;28;20041;-88
2022/04/16 01:52:49;;;;;;;8.15;5.47;;;8.20;84.90;;;;;;5014793;28;20111;-88
2022/04/16 01:55:16;;;;;;;6.88;4.60;;;8.10;85.00;;;;;;5014924;28;20041;-87
2022/04/16 01:57:43;;;;;;;7.32;4.43;;;8.10;85.10;;;;;;4982250;28;20054;-87
2022/04/16 02:00:14;;;;;;;8.13;5.25;;;8.10;85.10;;;;;;5014273;28;20046;-88
2022/04/16 02:02:45;;;;;;;9.73;4.93;;;8.00;85.20;;;;;;4998072;28;20050;-87
2022/04/16 02:05:12;;;;;;;9.07;5.53;;;8.00;85.20;;;;;;4998390;28;20092;-87
2022/04/16 02:07:39;;;;;;;8.75;5.60;;;8.00;85.30;;;;;;5003619;28;20128;-87
2022/04/16 02:10:07;;;;;;;8.07;4.78;;;8.00;85.50;;;;;;5014431;28;20061;-88
2022/04/16 02:12:39;;;;;;;7.35;5.13;;;7.90;85.40;;;;;;5013572;28;20045;-87
2022/04/16 02:15:07;;;;;;;10.95;5.75;;;7.90;85.50;;;;;;5014587;28;20084;-87
2022/04/16 02:17:36;;;;;;;8.77;5.45;;;7.90;85.60;;;;;;4997509;28;20046;-88
2022/04/16 02:20:08;;;;;;;15.57;5.72;;;7.80;85.60;;;;;;5014137;28;20483;-88
2022/04/16 02:22:46;;;;;;;8.00;4.85;;;7.80;85.70;;;;;;4994670;28;20360;-87
2022/04/16 02:25:16;;;;;;;5.95;3.95;;;7.80;85.80;;;;;;4989595;28;20903;-88
2022/04/16 02:27:46;;;;;;;7.18;3.85;;;7.80;85.90;;;;;;4997497;28;20065;-87
2022/04/16 02:30:17;;;;;;;7.78;3.95;;;7.70;85.90;;;;;;5015554;28;20053;-87
2022/04/16 02:32:46;;;;;;;6.13;4.05;;;7.70;86.00;;;;;;4998887;28;20042;-87
2022/04/16 02:35:14;;;;;;;6.53;4.07;;;7.70;86.10;;;;;;4982667;28;20045;-87
2022/04/16 02:37:42;;;;;;;7.82;4.57;;;7.70;86.10;;;;;;5013811;28;20088;-86
2022/04/16 02:40:11;;;;;;;7.30;4.50;;;7.70;86.20;;;;;;5014027;28;20053;-87
2022/04/16 02:42:41;;;;;;;8.30;4.68;;;7.70;86.20;;;;;;5013760;28;20057;-88
2022/04/16 02:47:58;;;;;;;8.55;4.78;;;7.70;86.20;;;;;;5014228;28;20116;-87
2022/04/16 02:50:28;;;;;;;7.85;4.68;;;7.60;86.20;;;;;;5013910;28;20414;-88
2022/04/16 02:52:56;;;;;;;7.55;5.05;;;7.60;86.30;;;;;;5012379;28;20042;-88
2022/04/16 02:55:23;;;;;;;8.48;5.10;;;7.60;86.40;;;;;;5014068;28;20092;-88
2022/04/16 02:57:51;;;;;;;7.57;5.13;;;7.60;86.60;;;;;;4997303;28;20562;-88
2022/04/16 03:00:22;;;;;;;8.75;4.90;;;7.60;86.60;;;;;;4993821;28;20072;-87
2022/04/16 03:02:50;;;;;;;7.05;4.38;;;7.60;86.70;;;;;;5007723;28;20525;-88
2022/04/16 03:05:17;;;;;;;7.00;4.38;;;7.50;86.70;;;;;;5012905;28;20042;-88
2022/04/16 03:07:47;;;;;;;7.03;3.90;;;7.50;86.70;;;;;;5013240;28;20104;-88
2022/04/16 03:10:15;;;;;;;8.30;4.13;;;7.50;86.90;;;;;;5010190;28;20046;-88
2022/04/16 03:12:52;;;;;;;8.55;4.55;;;7.50;86.90;;;;;;4988672;28;20077;-88
2022/04/16 03:18:09;;;;;;;8.20;5.10;;;7.50;87.00;;;;;;5013564;28;20621;-88
2022/04/16 03:20:38;;;;;;;8.80;5.13;;;7.50;87.00;;;;;;5001456;28;20096;-88
2022/04/16 03:23:06;;;;;;;10.20;5.63;;;7.50;87.00;;;;;;4996965;28;20050;-88
2022/04/16 03:25:33;;;;;;;8.93;5.20;;;7.50;87.20;;;;;;5012980;28;20060;-87
2022/04/16 03:28:03;;;;;;;8.57;5.35;;;7.50;87.20;;;;;;4993747;28;20121;-88
2022/04/16 03:30:30;;;;;;;11.02;6.75;;;7.40;87.20;;;;;;5006664;28;20037;-88
2022/04/16 03:32:57;;;;;;;11.65;7.05;;;7.40;87.20;;;;;;4996451;28;20058;-88
2022/04/16 03:35:24;;;;;;;9.63;6.20;;;7.40;87.30;;;;;;5012983;28;20046;-88
2022/04/16 03:37:52;;;;;;;8.82;5.68;;;7.40;87.40;;;;;;5012502;28;20104;-87
2022/04/16 03:40:19;;;;;;;11.65;6.28;;;7.40;87.40;;;;;;5013400;28;20126;-87
2022/04/16 03:43:00;;;;;;;9.70;6.13;;;7.40;87.50;;;;;;5023073;28;20048;-88
2022/04/16 03:45:33;;;;;;;9.90;6.18;;;7.40;87.70;;;;;;4993531;28;20050;-87
2022/04/16 03:48:01;;;;;;;8.55;5.45;;;7.30;87.60;;;;;;5007376;28;20046;-87
2022/04/16 03:50:30;;;;;;;8.52;5.30;;;7.30;87.70;;;;;;5013375;28;20095;-87
2022/04/16 03:52:58;;;;;;;7.43;4.90;;;7.30;87.80;;;;;;5013126;28;20045;-87
2022/04/16 04:01:02;;;;;;;8.63;5.20;;;7.30;87.90;;;;;;5013807;28;20072;-87
2022/04/16 04:03:30;;;;;;;8.05;4.97;;;7.30;88.00;;;;;;5012427;28;20049;-87
2022/04/16 04:06:00;;;;;;;9.00;5.20;;;7.30;88.00;;;;;;5017153;28;20073;-88
2022/04/16 04:08:28;;;;;;;7.38;4.45;;;7.30;88.10;;;;;;5012319;28;20426;-87
2022/04/16 04:10:55;;;;;;;9.27;5.32;;;7.20;88.10;;;;;;5009668;28;20052;-87
2022/04/16 04:13:23;;;;;;;8.32;4.95;;;7.20;88.20;;;;;;4991513;28;20071;-88
2022/04/16 04:15:51;;;;;;;8.63;5.47;;;7.20;88.30;;;;;;4980450;28;20042;-88
2022/04/16 04:18:19;;;;;;;9.25;5.15;;;7.20;88.40;;;;;;5012285;28;20046;-88
2022/04/16 04:20:46;;;;;;;7.80;4.40;;;7.20;88.40;;;;;;4996179;28;20402;-88
2022/04/16 04:23:13;;;;;;;6.05;3.63;;;7.20;88.50;;;;;;5009208;28;20073;-85
2022/04/16 04:25:40;;;;;;;7.45;4.70;;;7.10;88.50;;;;;;5009671;28;20359;-84
2022/04/16 04:28:07;;;;;;;7.55;4.93;;;7.10;88.50;;;;;;5011982;28;20395;-84
2022/04/16 04:30:36;;;;;;;7.55;4.68;;;7.10;88.60;;;;;;5011107;28;20567;-84
2022/04/16 04:33:03;;;;;;;7.32;4.53;;;7.10;88.70;;;;;;5006958;28;20121;-84
2022/04/16 04:35:31;;;;;;;7.15;4.18;;;7.10;88.80;;;;;;5007190;28;20049;-84
2022/04/16 04:37:59;;;;;;;7.20;4.57;;;7.10;88.80;;;;;;4999604;28;20490;-84
2022/04/16 04:40:26;;;;;;;6.78;3.90;;;7.00;88.80;;;;;;5017745;28;20096;-85
2022/04/16 04:42:56;;;;;;;6.38;3.83;;;7.00;88.80;;;;;;5014699;28;20111;-83
2022/04/16 04:45:23;;;;;;;7.88;4.93;;;7.00;88.90;;;;;;5015976;28;20478;-86
2022/04/16 04:47:51;;;;;;;8.15;4.50;;;7.00;88.90;;;;;;5014764;28;20107;-84
2022/04/16 04:50:21;;;;;;;7.80;4.97;;;7.00;89.00;;;;;;4999533;28;20038;-83
2022/04/16 04:52:51;;;;;;;9.32;4.35;;;7.00;89.00;;;;;;5000467;28;20536;-84
2022/04/16 04:55:18;;;;;;;9.27;4.60;;;7.00;89.10;;;;;;5015130;28;20041;-84
2022/04/16 04:57:45;;;;;;;7.57;4.65;;;7.00;89.20;;;;;;4985167;28;20052;-84
2022/04/16 05:00:14;;;;;;;9.20;5.57;;;7.00;89.10;;;;;;5015375;28;20042;-84
2022/04/16 05:02:43;;;;;;;8.40;5.43;;;7.00;89.10;;;;;;4998897;28;20054;-84
2022/04/16 05:05:11;;;;;;;10.00;4.70;;;7.10;89.20;;;;;;5014991;28;20096;-84
2022/04/16 05:07:41;;;;;;;8.85;5.00;;;7.00;89.10;;;;;;4999188;28;20041;-87
2022/04/16 05:10:11;;;;;;;9.00;5.55;;;7.10;89.20;;;;;;4997829;28;20046;-86
2022/04/16 05:12:38;;;;;;;11.38;6.15;;;7.10;89.20;;;;;;5016184;28;20125;-87
2022/04/16 05:15:07;;;;;;;12.52;7.32;;;7.10;89.20;;;;;;4999856;28;20041;-87
2022/04/16 05:17:37;;;;;;;11.85;8.13;;;7.10;89.30;;;;;;5016098;28;20104;-87
2022/04/16 05:20:09;;;;;;;12.52;8.05;;;7.10;89.30;;;;;;5015431;28;20045;-88
2022/04/16 05:22:37;;;;;;;9.63;6.07;;;7.20;89.40;;;;;;4993435;28;20046;-87
2022/04/16 05:25:06;;;;;;;12.38;7.82;;;7.20;89.40;;;;;;4996096;28;20373;-87
2022/04/16 05:27:34;;;;;;;13.80;8.75;;;7.20;89.40;;;;;;5012665;28;20038;-87
2022/04/16 05:30:12;;;;;;;13.27;8.27;;;7.20;89.40;;;;;;4998515;28;20518;-87
2022/04/16 05:32:42;;;;;;;10.98;7.93;;;7.30;89.50;;;;;;4997641;28;20379;-87
2022/04/16 05:35:10;;;;;;;11.80;7.53;;;7.30;89.50;;;;;;5005105;28;20041;-87
2022/04/16 05:37:38;;;;;;;11.88;7.25;;;7.40;90.00;;;;;;4997808;28;20049;-87
2022/04/16 05:40:06;;;;;;;10.93;7.43;;;7.40;89.50;;;;;;5015073;28;20559;-87
2022/04/16 05:42:43;;;;;;;12.00;6.97;;;7.40;89.50;;;;;;4998902;28;20053;-87
2022/04/16 05:45:14;;;;;;;9.23;5.60;;;7.50;89.40;;;;;;5014885;28;20050;-87
2022/04/16 05:47:43;;;;;;;10.27;6.38;;;7.50;89.40;;;;;;5008596;28;20581;-87
2022/04/16 05:50:11;;;;;;;9.57;6.50;;;7.60;89.40;;;;;;4986785;28;20048;-87
2022/04/16 05:52:38;;;;;;;8.48;6.15;;;7.60;89.40;;;;;;4993150;28;20038;-87
2022/04/16 05:55:06;;;;;;;11.95;6.93;;;7.70;89.30;;;;;;5011889;28;20065;-87
2022/04/16 05:57:33;;;;;;;10.43;6.38;;;7.80;89.30;;;;;;5017088;28;20050;-84
2022/04/16 06:00:00;;;;;;;9.63;6.35;;;7.90;89.30;;;;;;4966423;28;20046;-84
2022/04/16 06:02:27;;;;;;;10.98;7.68;;;7.90;89.10;;;;;;4978913;28;20463;-85
2022/04/16 06:04:54;;;;;;;11.15;7.28;;;8.00;89.10;;;;;;4978363;28;20141;-84
2022/04/16 06:07:22;;;;;;;10.52;6.32;;;8.10;89.00;;;;;;4969993;28;20043;-84
2022/04/16 06:09:49;;;;;;;13.18;8.38;;;8.20;89.00;;;;;;4988091;28;20047;-84
2022/04/16 06:12:16;;;;;;;13.55;7.40;;;8.30;89.00;;;;;;4962212;28;20058;-84
2022/04/16 06:14:43;;;;;;;11.13;7.50;;;8.40;88.90;;;;;;4988429;28;20383;-87
2022/04/16 06:17:10;;;;;;;10.02;6.57;;;8.40;88.90;;;;;;4962524;28;20039;-85
2022/04/16 06:19:37;;;;;;;9.40;6.15;;;8.50;88.80;;;;;;4978196;28;20450;-87
2022/04/16 06:22:05;;;;;;;12.27;7.82;;;8.50;88.80;;;;;;4977813;28;20100;-84
2022/04/16 06:24:32;;;;;;;11.85;7.88;;;8.60;88.80;;;;;;4961901;28;20043;-82
2022/04/16 06:26:59;;;;;;;12.23;8.15;;;8.70;88.80;;;;;;4977343;28;20038;-82
2022/04/16 06:29:26;;;;;;;11.88;7.88;;;8.70;88.70;;;;;;4980901;28;20144;-85
2022/04/16 06:31:53;;;;;;;12.90;7.88;;;8.80;88.70;;;;;;4964725;28;20094;-84
2022/04/16 06:34:23;;;;;;;12.73;7.60;;;8.90;88.60;;;;;;4960874;28;20039;-84
2022/04/16 06:36:51;;;;;;;11.73;7.82;;;9.00;88.60;;;;;;4977496;28;20968;-84
2022/04/16 06:39:30;;;;;;;10.38;6.47;;;9.10;88.50;;;;;;4982195;28;20109;-84
2022/04/16 06:42:00;;;;;;;10.48;5.95;;;9.20;88.40;;;;;;4963328;28;20065;-88
2022/04/16 06:44:31;;;;;;;12.32;8.40;;;9.20;88.20;;;;;;4979500;28;20058;-84
2022/04/16 06:47:04;;;;;;;9.95;6.25;;;9.30;88.20;;;;;;4962436;28;20064;-88
2022/04/16 06:49:32;;;;;;;11.02;7.07;;;9.40;88.00;;;;;;4979500;28;20042;-88
2022/04/16 06:52:00;;;;;;;11.00;7.03;;;9.50;88.00;;;;;;4962898;28;20050;-84
2022/04/16 06:54:30;;;;;;;11.05;6.50;;;9.60;87.90;;;;;;4976992;28;20051;-84
2022/04/16 06:56:57;;;;;;;12.25;8.10;;;9.60;87.70;;;;;;4971416;28;20407;-84
2022/04/16 06:59:25;;;;;;;11.57;6.95;;;9.70;87.70;;;;;;4976265;28;20060;-83
2022/04/16 07:01:53;;;;;;;13.63;8.88;;;9.70;87.70;;;;;;4981937;28;20129;-84
2022/04/16 07:04:20;;;;;;;14.52;8.77;;;9.80;87.70;;;;;;4998714;28;20073;-84
2022/04/16 07:06:48;;;;;;;11.90;7.03;;;9.80;87.60;;;;;;4961915;28;20048;-85
2022/04/16 07:09:15;;;;;;;12.60;7.60;;;9.80;87.50;;;;;;4965550;28;20141;-84
2022/04/16 07:11:42;;;;;;;10.25;7.18;;;9.90;87.50;;;;;;4977815;28;20053;-83
2022/04/16 07:14:09;;;;;;;13.68;7.20;;;10.00;87.40;;;;;;4961053;28;20074;-83
2022/04/16 07:16:39;;;;;;;12.35;7.70;;;10.00;87.30;;;;;;4993001;28;20042;-86
2022/04/16 07:19:06;;;;;;;10.25;7.25;;;10.10;87.20;;;;;;4977937;28;20073;-86
2022/04/16 07:21:33;;;;;;;12.95;7.20;;;10.10;87.10;;;;;;4985836;28;20704;-86
2022/04/16 07:24:00;;;;;;;12.10;7.82;;;10.20;87.10;;;;;;4980441;28;20054;-79
2022/04/16 07:26:27;;;;;;;11.00;7.55;;;10.30;87.00;;;;;;4981984;28;20418;-81
2022/04/16 07:28:57;;;;;;;12.05;7.18;;;10.30;86.90;;;;;;4983812;28;20050;-85
2022/04/16 07:31:24;;;;;;;10.20;6.63;;;10.30;86.80;;;;;;4976796;28;20142;-80
2022/04/16 07:33:51;;;;;;;11.10;7.03;;;10.40;86.70;;;;;;4995853;28;20066;-86
2022/04/16 07:36:23;;;;;;;11.18;7.05;;;10.40;86.50;;;;;;4974141;28;20065;-86
2022/04/16 07:38:50;;;;;;;11.32;7.03;;;10.50;86.40;;;;;;4955647;28;20054;-81
2022/04/16 07:41:34;;;;;;;9.95;6.43;;;10.50;86.40;;;;;;4963759;28;20509;-81
2022/04/16 07:44:25;;;;;;;10.45;7.07;;;10.50;86.30;;;;;;4962200;28;20042;-81
2022/04/16 07:47:02;;;;;;;12.05;7.45;;;10.60;86.20;;;;;;4994036;28;20042;-86
2022/04/16 07:49:30;;;;;;;10.27;6.95;;;10.70;86.00;;;;;;4974386;28;20185;-85
2022/04/16 07:51:57;;;;;;;11.50;7.75;;;10.80;85.90;;;;;;4959885;28;20046;-81
2022/04/16 07:54:24;;;;;;;12.18;7.68;;;10.90;85.80;;;;;;4975975;28;20133;-83
2022/04/16 07:56:51;;;;;;;9.73;5.75;;;11.00;85.70;;;;;;4982857;28;20050;-84
2022/04/16 07:59:21;;;;;;;13.85;8.45;;;11.10;85.60;;;;;;4963349;28;20065;-84
2022/04/16 08:01:48;;;;;;;10.95;6.82;;;11.10;85.40;;;;;;4981323;28;20046;-87
2022/04/16 08:04:16;;;;;;;9.20;6.65;;;11.20;85.40;;;;;;4999637;28;20054;-87
2022/04/16 08:06:43;;;;;;;12.10;6.88;;;11.30;85.20;;;;;;4975996;28;20590;-86
2022/04/16 08:09:10;;;;;;;10.65;6.82;;;11.40;85.10;;;;;;4986645;28;20092;-82
2022/04/16 08:11:37;;;;;;;9.02;5.93;;;11.40;84.80;;;;;;4972230;28;20484;-81
2022/04/16 08:14:04;;;;;;;10.45;6.50;;;11.50;84.70;;;;;;4987449;28;20325;-81
2022/04/16 08:16:32;;;;;;;10.60;6.65;;;11.70;84.60;;;;;;4994005;28;20047;-81
2022/04/16 08:18:59;;;;;;;9.95;6.35;;;11.70;84.10;;;;;;5011886;28;20089;-81
2022/04/16 08:21:26;;;;;;;10.13;5.95;;;11.80;84.10;;;;;;4989516;28;20047;-80
2022/04/16 08:26:40;;;;;;;10.65;6.43;;;12.00;83.70;;;;;;4977765;28;20054;-81
2022/04/16 08:29:07;;;;;;;10.50;6.35;;;12.00;83.50;;;;;;4991709;28;20053;-80
2022/04/16 08:31:35;;;;;;;9.45;5.43;;;12.10;83.40;;;;;;4990771;28;20038;-81
2022/04/16 08:34:05;;;;;;;7.55;5.15;;;12.20;83.30;;;;;;4990263;28;20061;-79
2022/04/16 08:36:32;;;;;;;7.85;5.22;;;12.30;83.00;;;;;;4983221;28;20038;-80
2022/04/16 08:38:59;;;;;;;8.45;5.28;;;12.40;82.90;;;;;;4988800;28;20054;-80
2022/04/16 08:41:27;;;;;;;8.05;4.40;;;12.40;82.60;;;;;;4993417;28;20069;-81
2022/04/16 08:43:56;;;;;;;11.15;6.05;;;12.50;82.50;;;;;;4987171;28;20064;-82
2022/04/16 08:46:30;;;;;;;8.70;5.18;;;12.60;82.20;;;;;;4981599;28;20030;-82
2022/04/16 08:49:02;;;;;;;8.23;4.53;;;12.70;82.10;;;;;;4995606;28;20077;-81
2022/04/16 08:51:30;;;;;;;7.72;4.68;;;12.80;82.00;;;;;;4981227;28;20049;-81
2022/04/16 08:53:57;;;;;;;7.75;4.40;;;12.90;81.70;;;;;;4972152;28;20039;-81
2022/04/16 08:56:24;;;;;;;9.15;4.85;;;13.10;81.50;;;;;;4975703;28;20096;-82
2022/04/16 08:58:52;;;;;;;9.63;6.10;;;13.20;81.10;;;;;;4989450;28;20061;-81
2022/04/16 09:01:19;;;;;;;10.10;6.95;;;13.20;80.40;;;;;;4989956;28;20129;-81
2022/04/16 09:03:51;;;;;;;7.65;5.63;;;13.10;80.30;;;;;;4982528;28;20125;-81
2022/04/16 09:06:23;;;;;;;10.27;5.45;;;13.00;80.40;;;;;;5000600;28;20061;-86
2022/04/16 09:08:52;;;;;;;10.13;6.00;;;13.00;80.40;;;;;;4979284;28;20479;-87
2022/04/16 09:11:22;;;;;;;8.45;4.82;;;13.00;80.40;;;;;;4965663;28;20112;-88
2022/04/16 09:13:49;;;;;;;10.05;6.22;;;12.90;80.50;;;;;;4992367;28;20050;-86
2022/04/16 09:16:17;;;;;;;9.32;6.38;;;13.00;80.30;;;;;;4984793;28;20069;-86
2022/04/16 09:18:55;;;;;;;8.82;5.63;;;13.00;79.80;;;;;;4967794;28;20054;-86
2022/04/16 09:21:27;;;;;;;8.45;5.40;;;13.00;79.60;;;;;;4954821;28;20066;-86
2022/04/16 09:23:59;;;;;;;8.38;5.35;;;13.00;79.20;;;;;;4976697;28;20046;-86
2022/04/16 09:26:38;;;;;;;9.25;5.55;;;13.10;79.30;;;;;;4995238;28;20062;-85
2022/04/16 09:29:07;;;;;;;8.68;5.28;;;13.20;79.00;;;;;;4995158;28;20070;-85
2022/04/16 09:31:39;;;;;;;8.63;4.55;;;13.20;78.70;;;;;;4974993;28;20054;-87
2022/04/16 09:34:19;;;;;;;8.27;5.05;;;13.30;78.60;;;;;;4975608;28;20038;-87
2022/04/16 09:36:47;;;;;;;8.00;5.07;;;13.40;78.40;;;;;;4970248;28;20474;-89
2022/04/16 09:39:16;;;;;;;6.32;4.05;;;13.50;78.20;;;;;;4964543;28;20066;-86
2022/04/16 09:41:51;;;;;;;7.38;4.55;;;13.50;78.10;;;;;;4963611;28;20486;-86
2022/04/16 09:44:22;;;;;;;9.75;5.45;;;13.60;77.60;;;;;;4978703;28;20081;-85
2022/04/16 09:46:53;;;;;;;8.10;5.15;;;13.50;77.40;;;;;;4978363;28;20463;-83
2022/04/16 09:49:21;;;;;;;7.45;4.32;;;13.60;77.50;;;;;;4979228;28;20062;-86
2022/04/16 09:51:49;;;;;;;8.18;4.55;;;13.60;77.30;;;;;;4964261;28;20423;-85
2022/04/16 09:54:17;;;;;;;10.50;6.10;;;13.80;77.40;;;;;;4959937;28;20053;-85
2022/04/16 09:56:48;;;;;;;10.57;6.57;;;13.80;76.60;;;;;;4960151;28;20046;-87
2022/04/16 09:59:16;;;;;;;9.13;5.80;;;13.70;76.50;;;;;;5006786;28;20120;-87
2022/04/16 10:01:51;;;;;;;6.35;4.57;;;13.70;76.50;;;;;;4983707;28;20129;-87
2022/04/16 10:04:33;;;;;;;5.38;3.35;;;13.80;76.50;;;;;;5007550;28;20045;-88
2022/04/16 10:07:01;;;;;;;6.97;4.30;;;13.90;76.60;;;;;;4984557;28;20038;-88
2022/04/16 10:09:28;;;;;;;5.57;3.63;;;14.00;76.30;;;;;;4982321;28;20038;-86
2022/04/16 10:15:07;;;;;;;7.03;4.43;;;14.00;75.80;;;;;;4990923;28;20136;-86
2022/04/16 10:17:44;;;;;;;5.15;3.10;;;13.90;75.60;;;;;;4996994;28;20447;-85
2022/04/16 10:20:16;;;;;;;6.57;4.28;;;14.00;75.60;;;;;;4997819;28;20060;-86
2022/04/16 10:23:06;;;;;;;8.45;4.85;;;14.10;74.80;;;;;;4997701;28;20203;-83
2022/04/16 10:25:40;;;;;;;6.38;3.53;;;14.30;74.20;;;;;;4994102;28;20513;-85
2022/04/16 10:28:09;;;;;;;4.60;2.97;;;14.40;74.10;;;;;;4981070;28;20050;-83
2022/04/16 10:30:41;;;;;;;5.95;3.25;;;14.40;74.00;;;;;;4996909;28;20046;-84
2022/04/16 10:33:28;;;;;;;4.65;2.38;;;14.40;74.00;;;;;;4994119;28;20046;-83
2022/04/16 10:36:10;;;;;;;5.40;2.63;;;14.50;73.60;;;;;;4980320;28;20049;-83
2022/04/16 10:38:43;;;;;;;4.20;2.30;;;14.40;73.80;;;;;;4994399;28;20049;-88
2022/04/16 10:41:17;;;;;;;4.70;2.45;;;14.40;73.50;;;;;;4995210;28;20041;-87
2022/04/16 10:44:01;;;;;;;4.30;2.40;;;14.40;73.30;;;;;;5000837;28;20050;-88
2022/04/16 10:46:51;;;;;;;4.82;2.75;;;14.50;73.10;;;;;;4995993;28;20104;-84
2022/04/16 10:49:23;;;;;;;5.47;2.50;;;14.50;71.50;;;;;;4983143;28;20045;-84
2022/04/16 10:51:52;;;;;;;4.13;2.58;;;14.50;71.30;;;;;;4997896;28;20046;-88
2022/04/16 10:54:36;;;;;;;4.13;2.13;;;14.50;70.90;;;;;;4996905;28;20042;-87
2022/04/16 10:57:19;;;;;;;3.55;1.95;;;14.70;70.40;;;;;;4993882;28;20042;-87
2022/04/16 10:59:58;;;;;;;5.13;2.38;;;14.90;69.60;;;;;;5005844;28;20050;-86
2022/04/16 11:02:38;;;;;;;3.58;1.60;;;14.90;69.20;;;;;;4997831;28;20462;-83
2022/04/16 11:05:14;;;;;;;3.85;1.88;;;15.20;68.90;;;;;;4995969;28;20053;-85
2022/04/16 11:07:42;;;;;;;3.15;1.50;;;15.60;67.00;;;;;;4993233;28;20069;-85
2022/04/16 11:10:11;;;;;;;3.63;1.75;;;15.60;66.60;;;;;;4978565;28;20132;-84
2022/04/16 11:12:43;;;;;;;2.97;1.40;;;15.30;67.40;;;;;;4996427;28;20112;-86
2022/04/16 11:15:24;;;;;;;3.20;1.40;;;15.00;67.80;;;;;;4996785;28;20406;-87
2022/04/16 11:17:56;;;;;;;3.90;1.65;;;14.90;68.40;;;;;;5012744;28;20483;-85
2022/04/16 11:20:27;;;;;;;3.53;1.67;;;14.80;68.50;;;;;;5009574;28;20556;-88
2022/04/16 11:22:55;;;;;;;3.85;2.08;;;14.70;69.20;;;;;;5000703;28;20054;-87
2022/04/16 11:25:24;;;;;;;4.13;1.90;;;14.70;68.00;;;;;;5008867;28;20046;-86
2022/04/16 11:36:15;;;;;;;4.60;2.03;;;17.60;61.30;;;;;;5009259;28;20062;-83
2022/04/16 11:38:43;;;;;;;3.20;1.58;;;17.90;60.20;;;;;;5003485;28;20050;-87
2022/04/16 11:41:12;;;;;;;3.20;1.70;;;18.30;59.90;;;;;;4996711;28;20038;-86
2022/04/16 11:43:47;;;;;;;3.38;1.83;;;18.50;59.10;;;;;;5012731;28;20819;-86
2022/04/16 11:46:15;;;;;;;3.35;1.60;;;18.70;59.00;;;;;;4996156;28;20053;-87
2022/04/16 11:48:44;;;;;;;4.32;1.55;;;19.00;58.60;;;;;;5012753;28;20049;-87
2022/04/16 11:51:13;;;;;;;3.20;1.80;;;19.00;58.10;;;;;;5012359;28;20050;-87
2022/04/16 11:53:51;;;;;;;3.10;1.65;;;18.90;57.80;;;;;;4996372;28;20041;-87
2022/04/16 11:56:26;;;;;;;3.45;1.73;;;18.90;57.40;;;;;;4996695;28;20049;-86
2022/04/16 11:58:54;;;;;;;2.75;1.27;;;18.90;57.40;;;;;;5012791;28;20524;-86
2022/04/16 12:01:22;;;;;;;3.45;1.58;;;19.10;57.60;;;;;;5008002;28;20137;-87
2022/04/16 12:03:53;;;;;;;3.33;1.65;;;19.20;57.40;;;;;;5013025;28;20065;-87
2022/04/16 12:06:20;;;;;;;3.03;1.38;;;19.30;56.50;;;;;;4993347;28;20406;-86
2022/04/16 12:08:50;;;;;;;3.80;1.67;;;19.20;56.10;;;;;;5011518;28;20469;-86
2022/04/16 12:11:21;;;;;;;2.63;1.52;;;18.50;56.20;;;;;;5004154;28;20046;-86
2022/04/16 12:13:52;;;;;;;2.88;1.88;;;17.60;57.70;;;;;;5011972;28;20042;-86
2022/04/16 12:16:19;;;;;;;4.40;1.88;;;17.00;58.10;;;;;;5022348;28;20046;-85
2022/04/16 12:18:51;;;;;;;3.00;1.52;;;16.50;59.40;;;;;;4996547;28;20041;-86
2022/04/16 12:21:18;;;;;;;3.35;1.45;;;16.20;60.30;;;;;;5010992;28;20034;-83
2022/04/16 12:23:46;;;;;;;3.25;1.88;;;16.10;60.00;;;;;;4995216;28;20057;-84
2022/04/16 12:26:21;;;;;;;2.60;1.20;;;15.90;60.20;;;;;;5009934;28;20054;-83
2022/04/16 12:28:53;;;;;;;4.78;1.90;;;15.80;60.30;;;;;;5011680;28;20124;-85
2022/04/16 12:31:29;;;;;;;3.35;1.70;;;15.80;60.40;;;;;;4980124;28;20058;-84
2022/04/16 12:33:57;;;;;;;2.78;1.73;;;15.70;60.00;;;;;;4995652;28;20061;-82
2022/04/16 12:36:27;;;;;;;3.90;2.10;;;15.60;60.00;;;;;;4998963;28;20030;-85
2022/04/16 12:38:54;;;;;;;2.90;1.48;;;15.60;59.50;;;;;;4992563;28;20050;-85
2022/04/16 12:41:22;;;;;;;3.55;1.55;;;15.50;59.70;;;;;;4995252;28;20132;-90
2022/04/16 12:43:50;;;;;;;3.95;2.13;;;15.50;59.30;;;;;;5009339;28;20057;-89
2022/04/16 12:46:17;;;;;;;3.53;1.30;;;15.50;59.00;;;;;;5009851;28;20457;-89
2022/04/16 12:48:45;;;;;;;2.60;1.17;;;15.50;58.90;;;;;;4995471;28;20046;-84
2022/04/16 12:51:15;;;;;;;3.75;1.38;;;15.50;59.00;;;;;;4995564;28;20046;-84
2022/04/16 12:53:43;;;;;;;2.88;1.27;;;15.60;58.60;;;;;;5011192;28;20502;-91
2022/04/16 12:56:11;;;;;;;2.25;1.02;;;15.60;58.40;;;;;;4991918;28;20507;-88
2022/04/16 12:58:38;;;;;;;3.40;1.00;;;15.60;58.50;;;;;;5006082;28;20104;-87
2022/04/16 13:01:06;;;;;;;2.42;0.90;;;15.60;58.40;;;;;;4982116;28;20042;-88
2022/04/16 13:03:34;;;;;;;2.55;1.00;;;15.60;58.00;;;;;;4993527;28;20069;-87
2022/04/16 13:06:02;;;;;;;3.05;1.13;;;15.60;57.70;;;;;;4980112;28;20118;-87
2022/04/16 13:08:31;;;;;;;2.08;0.80;;;15.60;57.60;;;;;;4980453;28;20058;-91
2022/04/16 13:11:23;;;;;;;2.58;1.30;;;15.60;57.50;;;;;;4964427;28;20050;-91
2022/04/16 13:14:39;;;;;;;2.10;0.90;;;15.60;56.60;;;;;;4972975;28;20042;-91
2022/04/16 13:17:25;;;;;;;2.67;1.00;;;15.50;56.20;;;;;;4983884;28;20046;-88
2022/04/16 13:19:53;;;;;;;2.25;0.90;;;15.50;56.50;;;;;;4967402;28;20392;-85
2022/04/16 13:22:20;;;;;;;2.58;1.15;;;15.50;55.70;;;;;;4978194;28;20066;-85
2022/04/16 13:24:47;;;;;;;2.17;1.02;;;15.50;55.10;;;;;;4974992;28;20113;-82
2022/04/16 13:27:14;;;;;;;2.70;0.90;;;15.50;54.20;;;;;;4961253;28;20485;-81
2022/04/16 13:29:41;;;;;;;2.03;1.15;;;15.40;53.90;;;;;;4984052;28;20046;-82